createdAt,value
2019-02-02T00:00:03.742Z,0.00
2019-02-02T00:01:03.726Z,0.00
2019-02-02T00:02:03.711Z,0.00
2019-02-02T00:03:03.694Z,0.00
2019-02-02T00:04:03.680Z,0.00
2019-02-02T00:05:03.663Z,0.00
2019-02-02T00:06:03.648Z,0.00
2019-02-02T00:07:03.632Z,0.00
2019-02-02T00:08:03.616Z,0.00
2019-02-02T00:09:03.601Z,0.00
2019-02-02T00:10:03.585Z,0.00
2019-02-02T00:11:03.569Z,0.00
2019-02-02T00:12:03.554Z,0.00
2019-02-02T00:13:03.544Z,0.00
2019-02-02T00:14:03.524Z,0.00
2019-02-02T00:15:03.507Z,0.00
2019-02-02T00:16:03.496Z,0.00
2019-02-02T00:17:03.475Z,0.00
2019-02-02T00:18:03.461Z,0.00
2019-02-02T00:19:03.447Z,0.00
2019-02-02T00:20:03.429Z,0.00
2019-02-02T00:21:03.413Z,0.00
2019-02-02T00:22:03.397Z,0.00
2019-02-02T00:23:03.381Z,0.00
2019-02-02T00:24:03.366Z,0.00
2019-02-02T00:25:03.353Z,0.00
2019-02-02T00:26:03.338Z,0.00
2019-02-02T00:27:03.321Z,0.00
2019-02-02T00:28:03.303Z,0.00
2019-02-02T00:29:03.289Z,0.00
2019-02-02T00:30:03.273Z,0.00
2019-02-02T00:31:03.256Z,0.00
2019-02-02T00:32:03.242Z,0.00
2019-02-02T00:33:03.225Z,0.00
2019-02-02T00:34:03.210Z,0.00
2019-02-02T00:35:03.197Z,0.00
2019-02-02T00:36:03.178Z,0.00
2019-02-02T00:37:03.164Z,0.00
2019-02-02T00:38:03.146Z,0.00
2019-02-02T00:39:03.130Z,0.00
2019-02-02T00:40:03.114Z,0.00
2019-02-02T00:41:03.099Z,0.00
2019-02-02T00:42:03.084Z,0.00
2019-02-02T00:43:03.066Z,0.00
2019-02-02T00:44:03.052Z,0.00
2019-02-02T00:45:03.036Z,0.00
2019-02-02T00:46:03.029Z,0.00
2019-02-02T00:47:03.009Z,0.00
2019-02-02T00:48:03.091Z,0.00
2019-02-02T00:49:02.974Z,0.00
2019-02-02T00:50:02.957Z,0.00
2019-02-02T00:51:02.940Z,0.00
2019-02-02T00:52:02.924Z,0.00
2019-02-02T00:53:02.912Z,0.00
2019-02-02T00:54:02.893Z,0.00
2019-02-02T00:55:02.888Z,0.00
2019-02-02T00:56:02.862Z,0.00
2019-02-02T00:57:02.851Z,0.00
2019-02-02T00:58:02.831Z,0.00
2019-02-02T00:59:02.815Z,0.00
2019-02-02T01:00:02.798Z,0.00
2019-02-02T01:01:02.783Z,0.00
2019-02-02T01:02:02.768Z,0.00
2019-02-02T01:03:02.753Z,0.00
2019-02-02T01:04:02.736Z,0.00
2019-02-02T01:05:02.721Z,0.00
2019-02-02T01:06:04.824Z,0.00
2019-02-02T01:07:02.689Z,0.00
2019-02-02T01:08:02.677Z,0.00
2019-02-02T01:09:02.661Z,0.00
2019-02-02T01:10:02.643Z,0.00
2019-02-02T01:11:02.627Z,0.00
2019-02-02T01:12:02.612Z,0.00
2019-02-02T01:13:02.598Z,0.00
2019-02-02T01:14:02.581Z,0.00
2019-02-02T01:15:02.565Z,0.00
2019-02-02T01:16:02.548Z,0.00
2019-02-02T01:17:02.533Z,0.00
2019-02-02T01:18:02.518Z,0.00
2019-02-02T01:19:02.502Z,0.00
2019-02-02T01:20:02.487Z,0.00
2019-02-02T01:21:02.471Z,0.00
2019-02-02T01:22:02.456Z,0.00
2019-02-02T01:23:02.438Z,0.00
2019-02-02T01:24:02.422Z,0.00
2019-02-02T01:25:02.411Z,0.00
2019-02-02T01:26:02.391Z,0.00
2019-02-02T01:27:02.374Z,0.00
2019-02-02T01:28:05.475Z,0.00
2019-02-02T01:29:02.343Z,0.00
2019-02-02T01:30:02.328Z,0.00
2019-02-02T01:31:02.311Z,0.00
2019-02-02T01:32:02.297Z,0.00
2019-02-02T01:33:02.280Z,0.00
2019-02-02T01:34:02.265Z,0.00
2019-02-02T01:35:02.248Z,0.00
2019-02-02T01:36:02.232Z,0.00
2019-02-02T01:37:02.217Z,0.00
2019-02-02T01:38:02.200Z,0.00
2019-02-02T01:39:02.183Z,0.00
2019-02-02T01:40:02.169Z,0.00
2019-02-02T01:41:02.153Z,0.00
2019-02-02T01:42:02.137Z,0.00
2019-02-02T01:43:02.121Z,0.00
2019-02-02T01:44:02.111Z,0.00
2019-02-02T01:45:02.089Z,0.00
2019-02-02T01:46:02.073Z,0.00
2019-02-02T01:47:02.057Z,0.00
2019-02-02T01:48:02.042Z,0.00
2019-02-02T01:49:02.044Z,0.00
2019-02-02T01:50:02.011Z,0.00
2019-02-02T01:51:01.993Z,0.00
2019-02-02T01:52:01.977Z,0.00
2019-02-02T01:53:01.962Z,0.00
2019-02-02T01:54:01.947Z,0.00
2019-02-02T01:55:01.930Z,0.00
2019-02-02T01:56:01.915Z,0.00
2019-02-02T01:57:01.899Z,0.00
2019-02-02T01:58:01.882Z,0.00
2019-02-02T01:59:01.867Z,0.00
2019-02-02T02:00:01.850Z,0.00
2019-02-02T02:01:01.835Z,0.00
2019-02-02T02:02:01.819Z,0.00
2019-02-02T02:03:01.901Z,0.00
2019-02-02T02:04:01.786Z,0.00
2019-02-02T02:05:01.771Z,0.00
2019-02-02T02:06:01.756Z,0.00
2019-02-02T02:07:01.739Z,0.00
2019-02-02T02:08:01.722Z,0.00
2019-02-02T02:09:01.707Z,0.00
2019-02-02T02:10:01.691Z,0.00
2019-02-02T02:11:01.678Z,0.00
2019-02-02T02:12:01.666Z,0.00
2019-02-02T02:13:01.643Z,0.00
2019-02-02T02:14:01.627Z,0.00
2019-02-02T02:15:01.610Z,0.00
2019-02-02T02:16:01.596Z,0.00
2019-02-02T02:17:01.579Z,0.00
2019-02-02T02:18:01.564Z,0.00
2019-02-02T02:19:01.546Z,0.00
2019-02-02T02:20:01.530Z,0.00
2019-02-02T02:21:01.514Z,0.00
2019-02-02T02:22:01.497Z,0.00
2019-02-02T02:23:01.480Z,0.00
2019-02-02T02:24:01.464Z,0.00
2019-02-02T02:25:01.449Z,0.00
2019-02-02T02:26:01.432Z,0.00
2019-02-02T02:27:01.415Z,0.00
2019-02-02T02:28:01.399Z,0.00
2019-02-02T02:29:01.383Z,0.00
2019-02-02T02:30:01.406Z,0.00
2019-02-02T02:31:01.355Z,0.00
2019-02-02T02:32:01.351Z,0.00
2019-02-02T02:33:01.333Z,0.00
2019-02-02T02:34:01.357Z,0.00
2019-02-02T02:35:01.287Z,0.00
2019-02-02T02:36:01.276Z,0.00
2019-02-02T02:37:01.256Z,0.00
2019-02-02T02:38:01.239Z,0.00
2019-02-02T02:39:01.221Z,0.00
2019-02-02T02:40:01.211Z,0.00
2019-02-02T02:41:01.191Z,0.00
2019-02-02T02:42:01.173Z,0.00
2019-02-02T02:43:01.156Z,0.00
2019-02-02T02:44:01.146Z,0.00
2019-02-02T02:45:01.124Z,0.00
2019-02-02T02:46:01.107Z,0.00
2019-02-02T02:47:01.090Z,0.00
2019-02-02T02:48:01.075Z,0.00
2019-02-02T02:49:01.060Z,0.00
2019-02-02T02:50:01.044Z,0.00
2019-02-02T02:51:01.028Z,0.00
2019-02-02T02:52:01.010Z,0.00
2019-02-02T02:53:00.994Z,0.00
2019-02-02T02:54:00.979Z,0.00
2019-02-02T02:55:01.712Z,0.00
2019-02-02T02:56:00.948Z,0.00
2019-02-02T02:57:00.929Z,0.00
2019-02-02T02:58:00.913Z,0.00
2019-02-02T02:59:00.896Z,0.00
2019-02-02T03:00:00.882Z,0.00
2019-02-02T03:01:00.864Z,0.00
2019-02-02T03:02:00.849Z,0.00
2019-02-02T03:03:00.835Z,0.00
2019-02-02T03:04:00.816Z,0.00
2019-02-02T03:05:00.798Z,0.00
2019-02-02T03:06:00.783Z,0.00
2019-02-02T03:07:00.765Z,0.00
2019-02-02T03:08:00.749Z,0.00
2019-02-02T03:09:00.732Z,0.00
2019-02-02T03:10:00.719Z,0.00
2019-02-02T03:11:00.704Z,0.00
2019-02-02T03:12:00.683Z,0.00
2019-02-02T03:13:01.818Z,0.00
2019-02-02T03:14:00.650Z,0.00
2019-02-02T03:15:00.636Z,0.00
2019-02-02T03:16:00.617Z,0.00
2019-02-02T03:17:00.611Z,0.00
2019-02-02T03:18:00.585Z,0.00
2019-02-02T03:19:00.567Z,0.00
2019-02-02T03:20:00.551Z,0.00
2019-02-02T03:21:00.535Z,0.00
2019-02-02T03:22:00.520Z,0.00
2019-02-02T03:23:00.565Z,0.00
2019-02-02T03:24:00.489Z,0.00
2019-02-02T03:25:00.580Z,0.00
2019-02-02T03:26:00.454Z,0.00
2019-02-02T03:27:00.438Z,0.00
2019-02-02T03:28:00.420Z,0.00
2019-02-02T03:29:00.406Z,0.00
2019-02-02T03:30:00.392Z,0.00
2019-02-02T03:31:01.928Z,0.00
2019-02-02T03:32:00.356Z,0.00
2019-02-02T03:33:00.341Z,0.00
2019-02-02T03:34:00.323Z,0.00
2019-02-02T03:35:00.315Z,0.00
2019-02-02T03:36:00.292Z,0.00
2019-02-02T03:37:00.430Z,0.00
2019-02-02T03:38:00.261Z,0.00
2019-02-02T03:39:00.293Z,0.00
2019-02-02T03:40:00.438Z,0.00
2019-02-02T03:41:00.260Z,0.00
2019-02-02T03:42:00.244Z,0.00
2019-02-02T03:43:00.227Z,0.00
2019-02-02T03:44:00.264Z,0.00
2019-02-02T03:45:00.351Z,0.00
2019-02-02T03:46:00.228Z,0.00
2019-02-02T03:47:00.122Z,0.00
2019-02-02T03:48:00.099Z,0.00
2019-02-02T03:49:00.086Z,0.00
2019-02-02T03:50:00.146Z,0.00
2019-02-02T03:51:00.045Z,0.00
2019-02-02T03:52:00.029Z,0.00
2019-02-02T03:53:00.013Z,0.00
2019-02-02T03:54:08.346Z,0.00
2019-02-02T03:55:00.017Z,0.00
2019-02-02T03:55:59.963Z,0.00
2019-02-02T03:56:59.948Z,0.00
2019-02-02T03:57:59.931Z,0.00
2019-02-02T03:59:06.580Z,0.00
2019-02-02T03:59:59.898Z,0.00
2019-02-02T04:00:59.881Z,0.00
2019-02-02T04:01:59.864Z,0.00
2019-02-02T04:02:59.848Z,0.00
2019-02-02T04:03:59.870Z,0.00
2019-02-02T04:04:59.816Z,0.00
2019-02-02T04:05:59.798Z,0.00
2019-02-02T04:06:59.781Z,0.00
2019-02-02T04:07:59.769Z,0.00
2019-02-02T04:08:59.752Z,0.00
2019-02-02T04:09:59.734Z,0.00
2019-02-02T04:10:59.717Z,0.00
2019-02-02T04:11:59.703Z,0.00
2019-02-02T04:12:59.684Z,0.00
2019-02-02T04:13:59.668Z,0.00
2019-02-02T04:14:59.651Z,0.00
2019-02-02T04:15:59.633Z,0.00
2019-02-02T04:16:59.629Z,0.00
2019-02-02T04:17:59.602Z,0.00
2019-02-02T04:18:59.586Z,0.00
2019-02-02T04:19:59.571Z,0.00
2019-02-02T04:20:59.552Z,0.00
2019-02-02T04:21:59.535Z,0.00
2019-02-02T04:22:59.517Z,0.00
2019-02-02T04:23:59.501Z,0.00
2019-02-02T04:24:59.485Z,0.00
2019-02-02T04:25:59.470Z,0.00
2019-02-02T04:26:59.451Z,0.00
2019-02-02T04:27:59.437Z,0.00
2019-02-02T04:28:59.419Z,0.00
2019-02-02T04:29:59.402Z,0.00
2019-02-02T04:30:59.386Z,0.00
2019-02-02T04:31:59.369Z,0.00
2019-02-02T04:32:59.353Z,0.00
2019-02-02T04:33:59.338Z,0.00
2019-02-02T04:34:59.319Z,0.00
2019-02-02T04:35:59.303Z,0.00
2019-02-02T04:36:59.287Z,0.00
2019-02-02T04:37:59.271Z,0.00
2019-02-02T04:38:59.255Z,0.00
2019-02-02T04:39:59.237Z,0.00
2019-02-02T04:40:59.221Z,0.00
2019-02-02T04:41:59.220Z,0.00
2019-02-02T04:43:01.702Z,0.00
2019-02-02T04:43:59.171Z,0.00
2019-02-02T04:44:59.155Z,0.00
2019-02-02T04:45:59.139Z,0.00
2019-02-02T04:46:59.122Z,0.00
2019-02-02T04:47:59.106Z,0.00
2019-02-02T04:48:59.090Z,0.00
2019-02-02T04:49:59.074Z,0.00
2019-02-02T04:50:59.057Z,0.00
2019-02-02T04:51:59.040Z,0.00
2019-02-02T04:52:59.027Z,0.00
2019-02-02T04:53:59.008Z,0.00
2019-02-02T04:54:58.992Z,0.00
2019-02-02T04:55:58.975Z,0.00
2019-02-02T04:56:58.959Z,0.00
2019-02-02T04:57:58.943Z,0.00
2019-02-02T04:58:58.926Z,0.00
2019-02-02T04:59:58.910Z,0.00
2019-02-02T05:00:58.977Z,0.00
2019-02-02T05:01:58.878Z,0.00
2019-02-02T05:02:58.861Z,0.00
2019-02-02T05:03:58.848Z,0.00
2019-02-02T05:04:58.830Z,0.00
2019-02-02T05:05:58.814Z,0.00
2019-02-02T05:06:58.799Z,0.00
2019-02-02T05:07:58.782Z,0.00
2019-02-02T05:08:58.767Z,0.00
2019-02-02T05:09:58.750Z,0.00
2019-02-02T05:10:58.733Z,0.00
2019-02-02T05:11:58.717Z,0.00
2019-02-02T05:12:58.701Z,0.00
2019-02-02T05:13:58.685Z,0.00
2019-02-02T05:14:58.669Z,0.00
2019-02-02T05:15:58.654Z,0.00
2019-02-02T05:16:58.638Z,0.00
2019-02-02T05:17:58.623Z,0.00
2019-02-02T05:18:58.606Z,0.00
2019-02-02T05:19:58.590Z,0.00
2019-02-02T05:20:58.575Z,0.00
2019-02-02T05:21:58.559Z,0.00
2019-02-02T05:22:58.542Z,0.00
2019-02-02T05:23:58.527Z,0.00
2019-02-02T05:24:58.512Z,0.00
2019-02-02T05:25:58.497Z,0.00
2019-02-02T05:26:58.479Z,0.00
2019-02-02T05:27:58.464Z,0.00
2019-02-02T05:28:58.450Z,0.00
2019-02-02T05:29:58.434Z,0.00
2019-02-02T05:30:58.417Z,0.00
2019-02-02T05:31:58.402Z,0.00
2019-02-02T05:32:58.386Z,0.00
2019-02-02T05:33:58.370Z,0.00
2019-02-02T05:34:58.353Z,0.00
2019-02-02T05:35:58.339Z,0.00
2019-02-02T05:36:58.322Z,0.00
2019-02-02T05:37:58.307Z,0.00
2019-02-02T05:38:58.290Z,0.00
2019-02-02T05:39:58.275Z,0.00
2019-02-02T05:40:58.260Z,0.00
2019-02-02T05:41:58.244Z,0.00
2019-02-02T05:42:58.228Z,0.00
2019-02-02T05:43:58.218Z,0.00
2019-02-02T05:44:58.200Z,0.00
2019-02-02T05:45:58.182Z,0.00
2019-02-02T05:46:58.170Z,0.00
2019-02-02T05:47:58.150Z,0.00
2019-02-02T05:48:58.135Z,0.00
2019-02-02T05:49:58.120Z,0.00
2019-02-02T05:50:58.103Z,0.00
2019-02-02T05:51:58.088Z,0.00
2019-02-02T05:52:58.074Z,0.00
2019-02-02T05:53:58.058Z,0.00
2019-02-02T05:54:58.041Z,0.00
2019-02-02T05:55:58.027Z,0.00
2019-02-02T05:56:58.011Z,0.00
2019-02-02T05:57:57.996Z,0.00
2019-02-02T05:58:57.979Z,0.00
2019-02-02T05:59:57.964Z,0.00
2019-02-02T06:00:57.949Z,0.00
2019-02-02T06:01:57.934Z,0.00
2019-02-02T06:02:57.918Z,0.00
2019-02-02T06:03:57.902Z,0.00
2019-02-02T06:04:57.887Z,0.00
2019-02-02T06:05:57.872Z,0.00
2019-02-02T06:06:57.856Z,0.00
2019-02-02T06:07:57.841Z,0.00
2019-02-02T06:08:57.825Z,0.00
2019-02-02T06:09:57.810Z,0.00
2019-02-02T06:10:57.794Z,0.00
2019-02-02T06:11:57.778Z,0.00
2019-02-02T06:12:57.763Z,0.00
2019-02-02T06:13:57.748Z,0.00
2019-02-02T06:14:57.732Z,0.00
2019-02-02T06:15:57.716Z,0.00
2019-02-02T06:16:57.705Z,0.00
2019-02-02T06:17:57.691Z,0.00
2019-02-02T06:18:57.668Z,0.00
2019-02-02T06:19:57.671Z,0.00
2019-02-02T06:20:57.640Z,0.00
2019-02-02T06:21:57.621Z,0.00
2019-02-02T06:22:57.605Z,0.00
2019-02-02T06:23:57.589Z,0.00
2019-02-02T06:24:57.575Z,0.00
2019-02-02T06:25:57.560Z,0.00
2019-02-02T06:26:57.543Z,0.00
2019-02-02T06:27:57.585Z,0.00
2019-02-02T06:28:57.512Z,0.00
2019-02-02T06:30:04.043Z,0.00
2019-02-02T06:31:00.173Z,0.00
2019-02-02T06:31:57.464Z,0.00
2019-02-02T06:32:57.451Z,0.00
2019-02-02T06:33:57.434Z,0.00
2019-02-02T06:34:57.417Z,0.00
2019-02-02T06:35:57.402Z,0.00
2019-02-02T06:36:57.387Z,0.00
2019-02-02T06:37:57.371Z,0.00
2019-02-02T06:38:57.355Z,0.00
2019-02-02T06:39:57.341Z,0.00
2019-02-02T06:40:57.324Z,0.00
2019-02-02T06:41:57.309Z,0.00
2019-02-02T06:42:57.292Z,0.00
2019-02-02T06:43:57.277Z,0.00
2019-02-02T06:44:57.262Z,0.00
2019-02-02T06:45:57.248Z,0.00
2019-02-02T06:46:57.230Z,0.00
2019-02-02T06:47:57.216Z,0.00
2019-02-02T06:48:57.201Z,0.00
2019-02-02T06:49:57.184Z,0.00
2019-02-02T06:50:57.167Z,0.00
2019-02-02T06:51:57.154Z,0.00
2019-02-02T06:52:57.136Z,0.00
2019-02-02T06:53:57.121Z,0.00
2019-02-02T06:54:57.155Z,0.00
2019-02-02T06:55:57.089Z,0.00
2019-02-02T06:56:57.074Z,0.00
2019-02-02T06:57:57.058Z,0.00
2019-02-02T06:58:57.041Z,0.00
2019-02-02T06:59:57.026Z,0.00
2019-02-02T07:00:57.010Z,0.00
2019-02-02T07:01:56.995Z,0.00
2019-02-02T07:02:56.978Z,0.00
2019-02-02T07:03:56.963Z,0.00
2019-02-02T07:04:56.948Z,0.00
2019-02-02T07:05:56.936Z,0.00
2019-02-02T07:06:56.917Z,0.00
2019-02-02T07:07:56.905Z,0.00
2019-02-02T07:08:56.889Z,0.00
2019-02-02T07:09:56.872Z,0.00
2019-02-02T07:10:56.854Z,0.00
2019-02-02T07:11:56.840Z,0.00
2019-02-02T07:12:56.825Z,0.00
2019-02-02T07:13:56.815Z,0.00
2019-02-02T07:14:56.791Z,0.00
2019-02-02T07:15:56.776Z,0.00
2019-02-02T07:16:56.761Z,0.00
2019-02-02T07:17:56.746Z,0.00
2019-02-02T07:18:56.734Z,0.00
2019-02-02T07:19:56.724Z,0.00
2019-02-02T07:20:56.699Z,0.00
2019-02-02T07:21:56.685Z,0.00
2019-02-02T07:22:56.668Z,0.00
2019-02-02T07:23:56.653Z,0.00
2019-02-02T07:24:56.639Z,0.00
2019-02-02T07:25:56.623Z,0.00
2019-02-02T07:26:56.606Z,0.00
2019-02-02T07:27:56.591Z,0.00
2019-02-02T07:28:56.575Z,5.63
2019-02-02T07:29:56.562Z,5.63
2019-02-02T07:30:56.544Z,5.63
2019-02-02T07:31:56.529Z,5.63
2019-02-02T07:32:56.514Z,5.63
2019-02-02T07:33:56.499Z,5.63
2019-02-02T07:34:56.485Z,5.63
2019-02-02T07:35:56.468Z,5.63
2019-02-02T07:36:56.453Z,5.63
2019-02-02T07:37:56.439Z,5.63
2019-02-02T07:38:56.421Z,5.63
2019-02-02T07:39:56.409Z,5.63
2019-02-02T07:40:56.392Z,5.63
2019-02-02T07:41:56.378Z,5.63
2019-02-02T07:42:56.360Z,11.25
2019-02-02T07:43:56.346Z,11.25
2019-02-02T07:44:56.331Z,11.25
2019-02-02T07:45:56.316Z,11.25
2019-02-02T07:46:56.299Z,11.25
2019-02-02T07:47:56.284Z,11.25
2019-02-02T07:48:56.269Z,11.25
2019-02-02T07:49:56.255Z,16.88
2019-02-02T07:50:56.238Z,16.88
2019-02-02T07:51:56.223Z,16.88
2019-02-02T07:52:56.208Z,16.88
2019-02-02T07:53:56.194Z,16.88
2019-02-02T07:54:56.178Z,16.88
2019-02-02T07:55:56.162Z,22.50
2019-02-02T07:56:56.148Z,22.50
2019-02-02T07:57:56.135Z,22.50
2019-02-02T07:58:56.115Z,22.50
2019-02-02T07:59:56.104Z,28.13
2019-02-02T08:00:56.086Z,28.13
2019-02-02T08:01:56.172Z,28.13
2019-02-02T08:02:56.054Z,28.13
2019-02-02T08:03:56.039Z,28.13
2019-02-02T08:04:56.025Z,28.13
2019-02-02T08:05:56.009Z,28.13
2019-02-02T08:06:55.993Z,33.75
2019-02-02T08:07:55.978Z,33.75
2019-02-02T08:08:55.962Z,33.75
2019-02-02T08:09:55.948Z,39.38
2019-02-02T08:10:55.931Z,39.38
2019-02-02T08:11:55.917Z,39.38
2019-02-02T08:12:55.917Z,45.00
2019-02-02T08:13:55.885Z,45.00
2019-02-02T08:14:55.870Z,50.63
2019-02-02T08:15:55.853Z,56.25
2019-02-02T08:16:55.966Z,61.88
2019-02-02T08:17:55.843Z,67.50
2019-02-02T08:18:55.806Z,73.13
2019-02-02T08:19:55.790Z,78.75
2019-02-02T08:20:55.778Z,84.38
2019-02-02T08:21:55.760Z,90.00
2019-02-02T08:22:56.573Z,101.25
2019-02-02T08:23:55.728Z,112.50
2019-02-02T08:24:55.713Z,123.75
2019-02-02T08:25:55.698Z,129.38
2019-02-02T08:26:55.683Z,135.00
2019-02-02T08:27:55.681Z,146.25
2019-02-02T08:28:55.651Z,151.88
2019-02-02T08:29:55.636Z,163.13
2019-02-02T08:30:55.618Z,174.38
2019-02-02T08:31:55.603Z,185.63
2019-02-02T08:32:55.588Z,185.63
2019-02-02T08:33:55.572Z,174.38
2019-02-02T08:34:55.556Z,163.13
2019-02-02T08:35:55.540Z,151.88
2019-02-02T08:36:55.527Z,135.00
2019-02-02T08:37:55.511Z,123.75
2019-02-02T08:38:55.495Z,112.50
2019-02-02T08:39:55.482Z,106.88
2019-02-02T08:40:55.464Z,101.25
2019-02-02T08:41:55.450Z,95.63
2019-02-02T08:42:55.433Z,95.63
2019-02-02T08:43:55.418Z,90.00
2019-02-02T08:44:55.403Z,90.00
2019-02-02T08:45:55.388Z,84.38
2019-02-02T08:46:55.371Z,84.38
2019-02-02T08:47:55.357Z,90.00
2019-02-02T08:48:55.342Z,90.00
2019-02-02T08:49:55.329Z,84.38
2019-02-02T08:50:55.311Z,84.38
2019-02-02T08:51:55.296Z,78.75
2019-02-02T08:52:55.459Z,78.75
2019-02-02T08:53:55.267Z,84.38
2019-02-02T08:54:55.250Z,84.38
2019-02-02T08:55:55.248Z,90.00
2019-02-02T08:56:55.466Z,95.63
2019-02-02T08:57:55.210Z,101.25
2019-02-02T08:58:55.189Z,106.88
2019-02-02T08:59:55.173Z,106.88
2019-02-02T09:01:03.699Z,106.88
2019-02-02T09:01:55.145Z,118.13
2019-02-02T09:02:55.133Z,123.75
2019-02-02T09:03:55.113Z,123.75
2019-02-02T09:04:55.159Z,129.38
2019-02-02T09:05:55.330Z,135.00
2019-02-02T09:06:55.069Z,135.00
2019-02-02T09:07:55.053Z,123.75
2019-02-02T09:08:55.039Z,112.50
2019-02-02T09:09:55.023Z,106.88
2019-02-02T09:10:55.008Z,112.50
2019-02-02T09:11:54.992Z,106.88
2019-02-02T09:12:54.977Z,106.88
2019-02-02T09:13:54.962Z,112.50
2019-02-02T09:14:54.947Z,112.50
2019-02-02T09:15:54.936Z,112.50
2019-02-02T09:16:54.919Z,112.50
2019-02-02T09:17:54.901Z,118.13
2019-02-02T09:18:54.884Z,129.38
2019-02-02T09:19:54.869Z,135.00
2019-02-02T09:20:54.854Z,135.00
2019-02-02T09:21:54.891Z,135.00
2019-02-02T09:23:03.965Z,146.25
2019-02-02T09:23:54.814Z,140.63
2019-02-02T09:24:54.794Z,140.63
2019-02-02T09:25:54.780Z,129.38
2019-02-02T09:26:54.762Z,123.75
2019-02-02T09:27:54.747Z,118.13
2019-02-02T09:28:54.737Z,123.75
2019-02-02T09:29:54.717Z,123.75
2019-02-02T09:30:54.719Z,129.38
2019-02-02T09:31:54.686Z,135.00
2019-02-02T09:32:54.671Z,146.25
2019-02-02T09:33:54.656Z,157.50
2019-02-02T09:34:54.640Z,151.88
2019-02-02T09:35:54.627Z,146.25
2019-02-02T09:36:54.612Z,135.00
2019-02-02T09:37:54.596Z,140.63
2019-02-02T09:38:54.583Z,129.38
2019-02-02T09:39:54.565Z,123.75
2019-02-02T09:40:54.551Z,123.75
2019-02-02T09:41:54.538Z,118.13
2019-02-02T09:42:54.524Z,112.50
2019-02-02T09:43:54.505Z,112.50
2019-02-02T09:44:54.490Z,112.50
2019-02-02T09:45:54.474Z,106.88
2019-02-02T09:46:54.458Z,112.50
2019-02-02T09:47:54.443Z,112.50
2019-02-02T09:48:54.428Z,112.50
2019-02-02T09:49:54.414Z,112.50
2019-02-02T09:50:54.397Z,112.50
2019-02-02T09:51:54.382Z,118.13
2019-02-02T09:52:54.367Z,112.50
2019-02-02T09:53:54.351Z,118.13
2019-02-02T09:54:54.336Z,112.50
2019-02-02T09:55:54.320Z,106.88
2019-02-02T09:56:54.307Z,106.88
2019-02-02T09:57:55.046Z,106.88
2019-02-02T09:58:54.273Z,106.88
2019-02-02T09:59:54.257Z,106.88
2019-02-02T10:00:54.244Z,106.88
2019-02-02T10:01:54.226Z,106.88
2019-02-02T10:02:54.212Z,101.25
2019-02-02T10:03:54.198Z,101.25
2019-02-02T10:04:54.178Z,101.25
2019-02-02T10:05:54.162Z,101.25
2019-02-02T10:06:54.146Z,106.88
2019-02-02T10:07:54.129Z,106.88
2019-02-02T10:08:54.117Z,106.88
2019-02-02T10:09:54.099Z,106.88
2019-02-02T10:10:54.098Z,106.88
2019-02-02T10:11:54.065Z,106.88
2019-02-02T10:12:54.050Z,106.88
2019-02-02T10:13:54.035Z,101.25
2019-02-02T10:14:54.018Z,95.63
2019-02-02T10:15:54.005Z,95.63
2019-02-02T10:16:53.989Z,95.63
2019-02-02T10:17:53.970Z,90.00
2019-02-02T10:18:53.952Z,95.63
2019-02-02T10:19:53.936Z,95.63
2019-02-02T10:21:03.630Z,90.00
2019-02-02T10:21:53.904Z,90.00
2019-02-02T10:22:53.891Z,90.00
2019-02-02T10:23:53.872Z,90.00
2019-02-02T10:24:53.855Z,90.00
2019-02-02T10:25:53.840Z,90.00
2019-02-02T10:26:53.822Z,95.63
2019-02-02T10:27:53.807Z,90.00
2019-02-02T10:28:53.790Z,95.63
2019-02-02T10:29:53.774Z,101.25
2019-02-02T10:30:53.756Z,101.25
2019-02-02T10:31:53.741Z,106.88
2019-02-02T10:32:53.725Z,106.88
2019-02-02T10:33:53.709Z,101.25
2019-02-02T10:34:53.692Z,106.88
2019-02-02T10:35:53.675Z,106.88
2019-02-02T10:36:53.659Z,118.13
2019-02-02T10:37:53.643Z,118.13
2019-02-02T10:38:53.626Z,112.50
2019-02-02T10:39:53.612Z,112.50
2019-02-02T10:40:53.596Z,118.13
2019-02-02T10:41:53.579Z,112.50
2019-02-02T10:42:53.564Z,112.50
2019-02-02T10:43:53.596Z,112.50
2019-02-02T10:44:53.532Z,112.50
2019-02-02T10:45:53.519Z,112.50
2019-02-02T10:46:53.498Z,112.50
2019-02-02T10:47:53.481Z,112.50
2019-02-02T10:48:53.466Z,118.13
2019-02-02T10:49:53.449Z,112.50
2019-02-02T10:50:53.435Z,112.50
2019-02-02T10:51:53.416Z,118.13
2019-02-02T10:52:53.400Z,118.13
2019-02-02T10:53:53.384Z,118.13
2019-02-02T10:54:53.367Z,112.50
2019-02-02T10:55:53.354Z,112.50
2019-02-02T10:56:53.335Z,118.13
2019-02-02T10:57:53.318Z,129.38
2019-02-02T10:58:53.351Z,123.75
2019-02-02T10:59:53.286Z,123.75
2019-02-02T11:00:53.271Z,135.00
2019-02-02T11:01:53.254Z,135.00
2019-02-02T11:02:53.237Z,146.25
2019-02-02T11:03:53.222Z,140.63
2019-02-02T11:04:53.651Z,140.63
2019-02-02T11:05:53.191Z,140.63
2019-02-02T11:06:53.203Z,146.25
2019-02-02T11:07:54.602Z,146.25
2019-02-02T11:08:53.164Z,146.25
2019-02-02T11:09:53.253Z,135.00
2019-02-02T11:10:53.199Z,135.00
2019-02-02T11:11:53.142Z,135.00
2019-02-02T11:12:53.077Z,135.00
2019-02-02T11:13:53.203Z,135.00
2019-02-02T11:14:53.046Z,129.38
2019-02-02T11:15:53.030Z,135.00
2019-02-02T11:16:53.011Z,146.25
2019-02-02T11:17:53.162Z,146.25
2019-02-02T11:18:52.998Z,151.88
2019-02-02T11:19:52.976Z,168.75
2019-02-02T11:20:52.994Z,180.00
2019-02-02T11:21:53.158Z,168.75
2019-02-02T11:22:53.029Z,168.75
2019-02-02T11:23:53.024Z,151.88
2019-02-02T11:24:52.961Z,151.88
2019-02-02T11:25:52.892Z,146.25
2019-02-02T11:26:52.850Z,151.88
2019-02-02T11:27:52.858Z,151.88
2019-02-02T11:28:52.870Z,146.25
2019-02-02T11:29:52.937Z,151.88
2019-02-02T11:30:52.836Z,151.88
2019-02-02T11:32:02.562Z,146.25
2019-02-02T11:32:52.753Z,140.63
2019-02-02T11:33:52.738Z,140.63
2019-02-02T11:34:52.721Z,135.00
2019-02-02T11:35:52.704Z,123.75
2019-02-02T11:36:52.689Z,123.75
2019-02-02T11:37:52.673Z,112.50
2019-02-02T11:38:52.656Z,112.50
2019-02-02T11:39:52.639Z,118.13
2019-02-02T11:40:52.623Z,112.50
2019-02-02T11:41:52.607Z,112.50
2019-02-02T11:42:52.592Z,112.50
2019-02-02T11:43:52.574Z,106.88
2019-02-02T11:44:52.563Z,106.88
2019-02-02T11:45:52.545Z,101.25
2019-02-02T11:46:52.526Z,101.25
2019-02-02T11:47:52.510Z,106.88
2019-02-02T11:48:52.495Z,101.25
2019-02-02T11:49:52.478Z,101.25
2019-02-02T11:50:52.462Z,112.50
2019-02-02T11:51:52.446Z,112.50
2019-02-02T11:52:52.431Z,112.50
2019-02-02T11:53:52.412Z,123.75
2019-02-02T11:54:52.396Z,135.00
2019-02-02T11:55:52.381Z,135.00
2019-02-02T11:56:52.364Z,140.63
2019-02-02T11:57:52.348Z,146.25
2019-02-02T11:58:52.331Z,151.88
2019-02-02T11:59:52.316Z,146.25
2019-02-02T12:00:52.299Z,140.63
2019-02-02T12:01:52.283Z,140.63
2019-02-02T12:02:52.267Z,140.63
2019-02-02T12:03:52.250Z,129.38
2019-02-02T12:04:52.234Z,140.63
2019-02-02T12:05:52.269Z,135.00
2019-02-02T12:06:52.201Z,140.63
2019-02-02T12:07:52.189Z,140.63
2019-02-02T12:08:52.170Z,135.00
2019-02-02T12:09:52.154Z,135.00
2019-02-02T12:10:52.137Z,135.00
2019-02-02T12:11:52.128Z,135.00
2019-02-02T12:12:52.109Z,129.38
2019-02-02T12:13:52.091Z,118.13
2019-02-02T12:14:52.074Z,118.13
2019-02-02T12:15:52.059Z,118.13
2019-02-02T12:16:52.043Z,106.88
2019-02-02T12:17:52.027Z,106.88
2019-02-02T12:18:52.012Z,106.88
2019-02-02T12:19:51.995Z,101.25
2019-02-02T12:20:51.979Z,101.25
2019-02-02T12:21:51.967Z,95.63
2019-02-02T12:22:51.947Z,90.00
2019-02-02T12:23:51.931Z,90.00
2019-02-02T12:24:51.915Z,84.38
2019-02-02T12:25:53.212Z,90.00
2019-02-02T12:26:51.883Z,90.00
2019-02-02T12:27:51.873Z,84.38
2019-02-02T12:28:51.967Z,84.38
2019-02-02T12:29:51.837Z,84.38
2019-02-02T12:30:51.820Z,78.75
2019-02-02T12:31:51.804Z,84.38
2019-02-02T12:32:51.789Z,84.38
2019-02-02T12:33:51.774Z,84.38
2019-02-02T12:34:51.756Z,84.38
2019-02-02T12:35:51.744Z,78.75
2019-02-02T12:36:51.729Z,78.75
2019-02-02T12:37:51.710Z,78.75
2019-02-02T12:38:51.692Z,84.38
2019-02-02T12:39:51.677Z,84.38
2019-02-02T12:40:51.663Z,84.38
2019-02-02T12:41:51.646Z,90.00
2019-02-02T12:42:51.628Z,90.00
2019-02-02T12:43:51.613Z,95.63
2019-02-02T12:44:51.597Z,95.63
2019-02-02T12:45:51.581Z,101.25
2019-02-02T12:46:51.565Z,106.88
2019-02-02T12:47:51.549Z,106.88
2019-02-02T12:48:51.535Z,112.50
2019-02-02T12:49:51.518Z,106.88
2019-02-02T12:50:51.503Z,106.88
2019-02-02T12:51:51.487Z,112.50
2019-02-02T12:52:51.471Z,112.50
2019-02-02T12:53:51.526Z,106.88
2019-02-02T12:54:51.438Z,106.88
2019-02-02T12:55:51.422Z,101.25
2019-02-02T12:56:51.407Z,95.63
2019-02-02T12:57:51.391Z,95.63
2019-02-02T12:58:51.376Z,90.00
2019-02-02T12:59:51.360Z,95.63